Time;durP1;ratioP1;P1;durP2;ratioP2;P2;SDS_P1;SDS_P2;PMS_P1;PMS_P2;Temp;Humidity;BMP_temperature;BMP_pressure;BME280_temperature;BME280_humidity;BME280_pressure;Samples;Min_cycle;Max_cycle;Signal;HPM_P1;HPM_P2
2024/04/15 00:00:44;;;;;;;;;10.00;9.00;;;;;-143.90;100.00;74868.31;5280918;26;98353;-73
2024/04/15 00:03:11;;;;;;;;;7.75;7.75;;;;;-143.90;100.00;74862.13;5282907;26;98347;-73
2024/04/15 00:05:40;;;;;;;;;10.50;8.00;;;;;-143.90;100.00;74855.91;5271489;26;100333;-73
2024/04/15 00:08:07;;;;;;;;;11.00;10.00;;;;;-143.90;100.00;74858.00;5281728;26;98323;-72
2024/04/15 00:10:37;;;;;;;;;10.00;9.75;;;;;-143.90;100.00;74851.78;5282748;26;98079;-73
2024/04/15 00:13:04;;;;;;;;;13.00;12.00;;;;;-143.90;100.00;74849.72;5279438;26;97872;-73
2024/04/15 00:15:31;;;;;;;;;12.50;11.00;;;;;-143.90;100.00;74845.59;5270502;26;99799;-72
2024/04/15 00:17:58;;;;;;;;;9.25;6.25;;;;;-143.90;100.00;74853.84;5273298;26;98380;-73
2024/04/15 00:20:29;;;;;;;;;11.75;6.25;;;;;-143.90;100.00;74855.91;5282029;26;97865;-73
2024/04/15 00:22:58;;;;;;;;;5.25;5.25;;;;;-143.90;100.00;74855.91;5285241;26;98155;-73
2024/04/15 00:25:25;;;;;;;;;5.00;5.00;;;;;-143.90;100.00;74858.00;5283530;26;104327;-73
2024/04/15 00:27:52;;;;;;;;;7.00;7.00;;;;;-143.90;100.00;74858.00;5221883;26;97990;-73
2024/04/15 00:30:19;;;;;;;;;7.00;7.00;;;;;-143.90;100.00;74862.13;5285138;26;97950;-72
2024/04/15 00:32:45;;;;;;;;;5.50;5.00;;;;;-143.90;100.00;74853.84;5280182;26;98232;-73
2024/04/15 00:35:12;;;;;;;;;5.25;5.00;;;;;-143.90;100.00;74843.53;5282975;26;100096;-73
2024/04/15 00:37:39;;;;;;;;;5.25;5.00;;;;;-143.90;100.00;74841.44;5269294;26;100753;-73
2024/04/15 00:40:07;;;;;;;;;4.25;4.00;;;;;-143.90;100.00;74843.53;5282147;26;97984;-73
2024/04/15 00:42:34;;;;;;;;;9.50;7.50;;;;;-143.90;100.00;74843.53;5280980;26;98665;-73
2024/04/15 00:45:01;;;;;;;;;5.50;5.50;;;;;-143.90;100.00;74843.53;5277724;26;101571;-71
2024/04/15 00:47:28;;;;;;;;;6.00;6.00;;;;;-143.90;100.00;74841.44;5281039;26;97877;-73
2024/04/15 00:49:55;;;;;;;;;6.00;4.50;;;;;-143.90;100.00;74841.44;5277621;26;98065;-72
2024/04/15 00:52:21;;;;;;;;;3.00;3.00;;;;;-143.90;100.00;74837.31;5284486;26;98463;-73
2024/04/15 00:54:49;;;;;;;;;9.75;7.25;;;;;-143.90;100.00;74833.19;5282174;26;99932;-73
2024/04/15 00:57:16;;;;;;;;;10.25;8.25;;;;;-143.90;100.00;74831.13;5281115;26;98474;-73
2024/04/15 00:59:43;;;;;;;;;9.25;6.00;;;;;-143.90;100.00;74829.03;5264691;26;98786;-73
2024/04/15 01:02:10;;;;;;;;;10.75;10.00;;;;;-143.90;100.00;74824.91;5278857;26;98294;-73
2024/04/15 01:04:38;;;;;;;;;6.75;6.75;;;;;-143.90;100.00;74826.97;5276860;26;99798;-73
2024/04/15 01:07:05;;;;;;;;;11.25;7.50;;;;;-143.90;100.00;74818.72;5276709;26;98802;-72
2024/04/15 01:09:32;;;;;;;;;9.50;8.75;;;;;-143.90;100.00;74812.50;5273128;26;98225;-72
2024/04/15 01:11:59;;;;;;;;;10.25;8.00;;;;;-143.90;100.00;74810.44;5286366;26;98083;-73
2024/04/15 01:14:26;;;;;;;;;7.00;6.00;;;;;-143.90;100.00;74808.38;5279905;26;104456;-73
2024/04/15 01:16:52;;;;;;;;;10.25;9.75;;;;;-143.90;100.00;74810.44;5280759;26;100263;-73
2024/04/15 01:19:19;;;;;;;;;9.50;9.50;;;;;-143.90;100.00;74798.03;5284053;26;97944;-73
2024/04/15 01:21:46;;;;;;;;;12.00;9.00;;;;;-143.90;100.00;74795.97;5274076;26;98511;-73
2024/04/15 01:24:13;;;;;;;;;11.00;11.00;;;;;-143.90;100.00;74787.69;5281357;26;99838;-73
2024/04/15 01:26:45;;;;;;;;;14.00;12.50;;;;;-143.90;100.00;74787.69;5285057;26;98324;-72
2024/04/15 01:29:12;;;;;;;;;14.25;12.50;;;;;-143.90;100.00;74777.38;5281293;26;98100;-72
2024/04/15 01:31:39;;;;;;;;;17.25;16.00;;;;;-143.90;100.00;74783.56;5272088;26;97966;-72
2024/04/15 01:34:06;;;;;;;;;12.50;11.50;;;;;-143.90;100.00;74775.31;5283736;26;99920;-73
2024/04/15 01:36:33;;;;;;;;;14.00;12.00;;;;;-143.90;100.00;74771.16;5284699;26;97845;-72
2024/04/15 01:38:59;;;;;;;;;10.00;10.00;;;;;-143.90;100.00;74769.09;5280754;26;98553;-72
2024/04/15 01:41:26;;;;;;;;;6.25;4.75;;;;;-143.90;100.00;74771.16;5283816;26;98418;-72
2024/04/15 01:43:53;;;;;;;;;6.00;5.50;;;;;-143.90;100.00;74769.09;5254193;26;101252;-72
2024/04/15 01:46:20;;;;;;;;;8.00;6.75;;;;;-143.90;100.00;74762.91;5282995;26;98043;-72
2024/04/15 01:48:47;;;;;;;;;9.00;7.00;;;;;-143.90;100.00;74764.97;5282105;26;100056;-73
2024/04/15 01:51:13;;;;;;;;;18.00;17.25;;;;;-143.90;100.00;74758.75;5283434;26;98617;-72
2024/04/15 01:53:40;;;;;;;;;18.75;17.50;;;;;-143.90;100.00;74754.63;5271782;26;99858;-72
2024/04/15 01:56:07;;;;;;;;;14.25;12.00;;;;;-143.90;100.00;74748.44;5285116;26;97808;-72
2024/04/15 01:58:34;;;;;;;;;13.75;10.00;;;;;-143.90;100.00;74750.50;5256002;26;98122;-72
2024/04/15 02:01:04;;;;;;;;;15.00;14.00;;;;;-143.90;100.00;74748.44;5284620;26;98318;-72
2024/04/15 02:03:32;;;;;;;;;14.00;13.00;;;;;-143.90;100.00;74748.44;5273214;26;99971;-71
2024/04/15 02:05:59;;;;;;;;;15.00;11.75;;;;;-143.90;100.00;74756.69;5290314;26;98326;-73
2024/04/15 02:08:25;;;;;;;;;14.00;11.75;;;;;-143.90;100.00;74746.34;5280685;26;98276;-73
2024/04/15 02:10:52;;;;;;;;;14.75;12.75;;;;;-143.90;100.00;74746.34;5285632;26;98066;-73
2024/04/15 02:13:19;;;;;;;;;10.50;9.75;;;;;-143.90;100.00;74752.56;5289591;26;99751;-73
2024/04/15 02:15:46;;;;;;;;;6.50;6.00;;;;;-143.90;100.00;74754.63;5275438;26;97920;-72
2024/04/15 02:18:13;;;;;;;;;6.00;6.00;;;;;-143.90;100.00;74754.63;5281054;26;99165;-73
2024/04/15 02:20:41;;;;;;;;;4.75;4.75;;;;;-143.90;100.00;74758.75;5286009;26;99552;-73
2024/04/15 02:23:08;;;;;;;;;6.00;6.00;;;;;-143.90;100.00;74767.03;5283415;26;100040;-72
2024/04/15 02:25:35;;;;;;;;;10.00;7.50;;;;;-143.90;100.00;74767.03;5276765;26;98894;-73
2024/04/15 02:28:02;;;;;;;;;6.25;6.25;;;;;-143.90;100.00;74752.56;5289311;26;98226;-72
2024/04/15 02:30:29;;;;;;;;;9.50;7.75;;;;;-143.90;100.00;74752.56;5293368;26;101870;-72
2024/04/15 02:32:56;;;;;;;;;11.25;10.50;;;;;-143.90;100.00;74758.75;5285107;26;104329;-72
2024/04/15 02:35:22;;;;;;;;;9.50;7.00;;;;;-143.90;100.00;74750.50;5286488;26;98491;-72
2024/04/15 02:37:49;;;;;;;;;6.00;6.00;;;;;-143.90;100.00;74752.56;5274111;26;97950;-73
2024/04/15 02:40:16;;;;;;;;;6.00;5.00;;;;;-143.90;100.00;74748.44;5285345;25;97845;-72
2024/04/15 02:42:43;;;;;;;;;5.00;3.00;;;;;-143.90;100.00;74738.09;5284519;26;99900;-73
2024/04/15 02:45:11;;;;;;;;;3.50;3.50;;;;;-143.90;100.00;74738.09;5285999;26;98005;-72
2024/04/15 02:47:37;;;;;;;;;3.00;3.00;;;;;-143.90;100.00;74738.09;5272309;26;97928;-72
2024/04/15 02:50:05;;;;;;;;;5.00;3.25;;;;;-143.90;100.00;74733.97;5292072;26;98485;-72
2024/04/15 02:52:31;;;;;;;;;3.25;3.25;;;;;-143.90;100.00;74742.22;5289775;26;99806;-72
2024/04/15 02:54:58;;;;;;;;;4.50;3.00;;;;;-143.90;100.00;74746.34;5285572;26;97739;-72
2024/04/15 02:57:25;;;;;;;;;6.75;4.00;;;;;-143.90;100.00;74746.34;5286364;26;98326;-72
2024/04/15 02:59:52;;;;;;;;;3.25;2.25;;;;;-143.90;100.00;74738.09;5275104;26;102251;-73
2024/04/15 03:02:19;;;;;;;;;4.00;3.00;;;;;-143.90;100.00;74733.97;5284147;26;99880;-73
2024/04/15 03:04:46;;;;;;;;;2.25;2.00;;;;;-143.90;100.00;74736.03;5283920;26;97879;-73
2024/04/15 03:07:13;;;;;;;;;3.00;3.00;;;;;-143.90;100.00;74738.09;5284343;26;97866;-72
2024/04/15 03:09:39;;;;;;;;;2.00;2.00;;;;;-143.90;100.00;74738.09;5275727;26;98195;-73
2024/04/15 03:12:06;;;;;;;;;5.00;5.00;;;;;-143.90;100.00;74740.16;5275158;26;99172;-73
2024/04/15 03:14:33;;;;;;;;;7.00;7.00;;;;;-143.90;100.00;74736.03;5278237;26;99034;-72
2024/04/15 03:17:01;;;;;;;;;4.75;4.25;;;;;-143.90;100.00;74744.28;5282900;26;98621;-72
2024/04/15 03:19:28;;;;;;;;;8.00;7.00;;;;;-143.90;100.00;74733.97;5280849;26;98090;-73
2024/04/15 03:21:55;;;;;;;;;6.00;6.00;;;;;-143.90;100.00;74740.16;5284881;26;105884;-72
2024/04/15 03:24:22;;;;;;;;;5.75;5.50;;;;;-143.90;100.00;74738.09;5274508;26;98301;-72
2024/04/15 03:26:49;;;;;;;;;10.00;8.75;;;;;-143.90;100.00;74738.09;5276964;26;98403;-72
2024/04/15 03:29:15;;;;;;;;;8.25;7.25;;;;;-143.90;100.00;74736.03;5281739;26;98315;-72
2024/04/15 03:31:42;;;;;;;;;6.00;5.50;;;;;-143.90;100.00;74742.22;5272666;26;100701;-72
2024/04/15 03:34:09;;;;;;;;;5.50;5.00;;;;;-143.90;100.00;74738.09;5282288;26;97813;-72
2024/04/15 03:36:36;;;;;;;;;5.25;5.00;;;;;-143.90;100.00;74731.88;5282155;26;99783;-72
2024/04/15 03:39:03;;;;;;;;;7.50;6.75;;;;;-143.90;100.00;74733.97;5290932;26;98260;-72
2024/04/15 03:41:30;;;;;;;;;8.00;7.25;;;;;-143.90;100.00;74729.81;5277610;26;99762;-72
2024/04/15 03:43:56;;;;;;;;;7.00;6.00;;;;;-143.90;100.00;74725.69;5278274;26;99546;-73
2024/04/15 03:46:23;;;;;;;;;11.75;9.00;;;;;-143.90;100.00;74725.69;5278825;26;98751;-72
2024/04/15 03:48:50;;;;;;;;;12.50;11.25;;;;;-143.90;100.00;74725.69;5280229;26;97947;-73
2024/04/15 03:51:17;;;;;;;;;12.75;12.00;;;;;-143.90;100.00;74723.63;5280590;26;99900;-73
2024/04/15 03:53:44;;;;;;;;;12.00;10.50;;;;;-143.90;100.00;74723.63;5273457;26;98192;-73
2024/04/15 03:56:10;;;;;;;;;10.00;9.75;;;;;-143.90;100.00;74725.69;5279071;26;98784;-72
2024/04/15 03:58:37;;;;;;;;;9.00;8.25;;;;;-143.90;100.00;74719.47;5280681;26;99431;-73
2024/04/15 04:01:04;;;;;;;;;10.75;9.00;;;;;-143.90;100.00;74709.16;5279837;26;99712;-72
2024/04/15 04:03:31;;;;;;;;;9.75;9.00;;;;;-143.90;100.00;74696.75;5274113;26;98733;-72
2024/04/15 04:05:58;;;;;;;;;7.50;7.50;;;;;-143.90;100.00;74686.41;5276753;26;99045;-73
2024/04/15 04:08:37;;;;;;;;;5.00;3.25;;;;;-143.90;100.00;74667.81;5272025;26;97924;-72
2024/04/15 04:11:06;;;;;;;;;6.25;5.50;;;;;-143.90;100.00;74659.53;5280982;26;99880;-72
2024/04/15 04:13:36;;;;;;;;;8.00;5.00;;;;;-143.90;100.00;74653.34;5274366;26;98435;-71
2024/04/15 04:16:04;;;;;;;;;9.00;8.00;;;;;-143.90;100.00;74638.88;5267717;26;100081;-74
2024/04/15 04:18:31;;;;;;;;;9.00;7.50;;;;;-143.90;100.00;74624.41;5281092;26;101202;-72
2024/04/15 04:20:58;;;;;;;;;7.75;7.25;;;;;-143.90;100.00;74626.47;5279325;26;104539;-73
2024/04/15 04:23:25;;;;;;;;;10.75;10.00;;;;;-143.90;100.00;74626.47;5279020;26;99559;-73
2024/04/15 04:25:52;;;;;;;;;9.00;9.00;;;;;-143.90;100.00;74634.72;5272512;25;98374;-72
2024/04/15 04:28:18;;;;;;;;;9.75;9.50;;;;;-143.90;100.00;74647.13;5283776;26;98110;-73
2024/04/15 04:30:45;;;;;;;;;6.00;6.00;;;;;-143.90;100.00;74651.28;5279399;26;99879;-72
2024/04/15 04:33:12;;;;;;;;;5.00;5.00;;;;;-143.90;100.00;74643.00;5282160;26;98371;-72
2024/04/15 04:35:40;;;;;;;;;4.00;3.00;;;;;-143.90;100.00;74643.00;5268295;26;97983;-72
2024/04/15 04:38:07;;;;;;;;;2.00;2.00;;;;;-143.90;100.00;74634.72;5280008;26;98340;-73
2024/04/15 04:40:34;;;;;;;;;6.00;6.00;;;;;-143.90;100.00;74630.59;5281849;26;99789;-72
2024/04/15 04:43:01;;;;;;;;;7.00;6.25;;;;;-143.90;100.00;74620.25;5285170;26;102920;-74
2024/04/15 04:45:27;;;;;;;;;8.00;7.50;;;;;-143.90;100.00;74612.00;5276201;26;98343;-74
2024/04/15 04:47:54;;;;;;;;;8.00;6.50;;;;;-143.90;100.00;74622.34;5273499;26;98043;-73
2024/04/15 04:50:22;;;;;;;;;9.75;9.75;;;;;-143.90;100.00;74614.06;5270004;25;99879;-73
2024/04/15 04:52:49;;;;;;;;;11.75;10.00;;;;;-143.90;100.00;74620.25;5251735;26;98367;-73
2024/04/15 04:55:16;;;;;;;;;11.25;9.50;;;;;-143.90;100.00;74638.88;5272222;26;98347;-73
2024/04/15 04:57:43;;;;;;;;;8.00;7.75;;;;;-143.90;100.00;74649.19;5270237;25;97997;-73
2024/04/15 05:00:10;;;;;;;;;10.00;9.00;;;;;-143.90;100.00;74655.41;5264436;25;100456;-72
2024/04/15 05:02:37;;;;;;;;;9.00;9.00;;;;;-143.90;100.00;74671.94;5267409;26;98035;-73
2024/04/15 05:05:04;;;;;;;;;6.00;6.00;;;;;-143.90;100.00;74667.81;5279095;25;100094;-73
2024/04/15 05:07:31;;;;;;;;;12.00;12.00;;;;;-143.90;100.00;74684.34;5271537;26;102514;-72
2024/04/15 05:09:58;;;;;;;;;17.00;12.00;;;;;-143.90;100.00;74705.00;5281589;26;104415;-72
2024/04/15 05:12:25;;;;;;;;;8.75;7.25;;;;;-143.90;100.00;74702.94;5273675;26;98916;-72
2024/04/15 05:14:52;;;;;;;;;8.00;8.00;;;;;-143.90;100.00;74696.75;5280479;25;98041;-73
2024/04/15 05:17:19;;;;;;;;;6.25;5.25;;;;;-143.90;100.00;74692.63;5277855;26;98122;-72
2024/04/15 05:19:45;;;;;;;;;5.75;4.75;;;;;-143.90;100.00;74680.22;5266191;26;99915;-72
2024/04/15 05:22:12;;;;;;;;;4.75;4.00;;;;;-143.90;100.00;74674.00;5280655;26;98148;-72
2024/04/15 05:24:39;;;;;;;;;7.75;6.50;;;;;-143.90;100.00;74653.34;5277523;26;98096;-72
2024/04/15 05:27:06;;;;;;;;;19.00;18.25;;;;;-143.90;100.00;74634.72;5275801;26;98506;-71
2024/04/15 05:29:33;;;;;;;;;15.25;15.25;;;;;-143.90;100.00;74645.06;5267178;26;101606;-71
2024/04/15 05:32:00;;;;;;;;;16.50;13.00;;;;;-143.90;100.00;74663.66;5278734;26;100912;-71
2024/04/15 05:34:27;;;;;;;;;13.75;11.50;;;;;-143.90;100.00;74671.94;5284514;26;100727;-72
2024/04/15 05:36:54;;;;;;;;;17.00;13.25;;;;;-143.90;100.00;74674.00;5273443;26;98090;-72
2024/04/15 05:39:20;;;;;;;;;11.25;11.00;;;;;-143.90;100.00;74667.81;5275836;26;99744;-72
2024/04/15 05:41:47;;;;;;;;;15.75;14.75;;;;;-143.90;100.00;74680.22;5267370;26;97997;-72
2024/04/15 05:44:14;;;;;;;;;9.75;9.25;;;;;-143.90;100.00;74684.34;5279744;26;98139;-72
2024/04/15 05:46:49;;;;;;;;;9.00;8.75;;;;;-143.90;100.00;74692.63;5266197;26;98674;-72
2024/04/15 05:49:17;;;;;;;;;11.75;9.00;;;;;-143.90;100.00;74692.63;5278517;26;104626;-72
2024/04/15 05:51:46;;;;;;;;;10.00;9.00;;;;;-143.90;100.00;74696.75;5270327;26;98399;-72
2024/04/15 05:54:12;;;;;;;;;8.00;8.00;;;;;-143.90;100.00;74721.56;5264000;26;98121;-72
2024/04/15 05:56:39;;;;;;;;;17.00;17.00;;;;;-143.90;100.00;74750.50;5277919;26;98376;-72
2024/04/15 05:59:06;;;;;;;;;17.50;15.50;;;;;-143.90;100.00;74740.16;5275656;26;100078;-72
2024/04/15 06:01:33;;;;;;;;;23.50;20.75;;;;;-143.90;100.00;74793.91;5266193;26;97932;-71
2024/04/15 06:03:59;;;;;;;;;23.50;20.25;;;;;-143.90;100.00;74773.22;5278028;25;98007;-72
2024/04/15 06:06:26;;;;;;;;;18.00;18.00;;;;;-143.90;100.00;74758.75;5277748;26;97916;-72
2024/04/15 06:08:53;;;;;;;;;11.75;10.50;;;;;-143.90;100.00;74746.34;5279002;26;99885;-72
2024/04/15 06:11:20;;;;;;;;;11.50;11.00;;;;;-143.90;100.00;74758.75;5280147;26;98383;-72
2024/04/15 06:13:47;;;;;;;;;12.25;12.00;;;;;-143.90;100.00;74746.34;5271476;26;99513;-72
2024/04/15 06:16:14;;;;;;;;;10.25;10.25;;;;;-143.90;100.00;74738.09;5287448;26;101762;-71
2024/04/15 06:18:40;;;;;;;;;7.75;5.50;;;;;-143.90;100.00;74742.22;5278518;26;100367;-71
2024/04/15 06:21:07;;;;;;;;;9.50;9.00;;;;;-143.90;100.00;74729.81;5284557;26;98131;-72
2024/04/15 06:23:34;;;;;;;;;10.50;9.50;;;;;-143.90;100.00;74733.97;5275270;26;97977;-72
2024/04/15 06:26:01;;;;;;;;;5.25;4.75;;;;;-143.90;100.00;74740.16;5284776;26;98854;-72
2024/04/15 06:28:28;;;;;;;;;10.00;9.25;;;;;-143.90;100.00;74738.09;5291525;26;104271;-72
2024/04/15 06:30:55;;;;;;;;;11.50;9.75;;;;;-143.90;100.00;74713.28;5284597;26;98218;-73
2024/04/15 06:33:22;;;;;;;;;9.75;9.00;;;;;-143.90;100.00;74707.09;5275866;26;98405;-72
2024/04/15 06:35:49;;;;;;;;;7.25;7.25;;;;;-143.90;100.00;74705.00;5270604;26;98877;-72
2024/04/15 06:38:15;;;;;;;;;7.25;7.25;;;;;-143.90;100.00;74692.63;5284096;26;99742;-72
2024/04/15 06:40:42;;;;;;;;;7.25;5.00;;;;;-143.90;100.00;74694.69;5279892;26;98462;-73
2024/04/15 06:43:10;;;;;;;;;7.50;6.50;;;;;-143.90;100.00;74684.34;5275589;25;104157;-73
2024/04/15 06:45:37;;;;;;;;;7.00;5.50;;;;;-143.90;100.00;74696.75;5274145;26;98291;-72
2024/04/15 06:48:05;;;;;;;;;6.50;5.00;;;;;-143.90;100.00;74705.00;5266230;26;99770;-72
2024/04/15 06:50:32;;;;;;;;;6.00;5.50;;;;;-143.90;100.00;74702.94;5283671;26;98183;-72
2024/04/15 06:53:03;;;;;;;;;5.00;5.00;;;;;-143.90;100.00;74702.94;5289738;26;97944;-71
2024/04/15 06:55:30;;;;;;;;;5.75;4.75;;;;;-143.90;100.00;74692.63;5275092;26;98458;-71
2024/04/15 06:57:57;;;;;;;;;6.00;5.75;;;;;-143.90;100.00;74671.94;5277483;26;109233;-72
2024/04/15 07:00:24;;;;;;;;;6.25;6.25;;;;;-143.90;100.00;74651.28;5259337;26;98624;-71
2024/04/15 07:02:52;;;;;;;;;8.50;8.00;;;;;-143.90;100.00;74620.25;5276999;26;98424;-72
2024/04/15 07:05:19;;;;;;;;;14.25;12.25;;;;;-143.90;100.00;74614.06;5281612;26;98783;-71
2024/04/15 07:07:46;;;;;;;;;18.75;17.50;;;;;-143.90;100.00;74638.88;5273129;26;99765;-72
2024/04/15 07:10:13;;;;;;;;;20.25;16.75;;;;;-143.90;100.00;74659.53;5275662;26;98689;-71
2024/04/15 07:12:40;;;;;;;;;19.75;18.00;;;;;-143.90;100.00;74676.06;5269155;26;97898;-72
2024/04/15 07:15:07;;;;;;;;;16.50;13.25;;;;;-143.90;100.00;74653.34;5288642;26;98078;-71
2024/04/15 07:17:35;;;;;;;;;16.00;13.00;;;;;-143.90;100.00;74628.53;5268936;25;99767;-70
2024/04/15 07:20:02;;;;;;;;;11.50;10.00;;;;;-143.90;100.00;74630.59;5277751;26;102979;-71
2024/04/15 07:22:29;;;;;;;;;10.75;10.00;;;;;-143.90;100.00;74640.94;5266199;26;98537;-71
2024/04/15 07:25:02;;;;;;;;;12.25;12.25;;;;;-143.90;100.00;74657.47;5275042;26;98604;-73
2024/04/15 07:27:32;;;;;;;;;16.00;16.00;;;;;-143.90;100.00;74649.19;5278234;26;104488;-72
2024/04/15 07:29:59;;;;;;;;;17.25;15.50;;;;;-143.90;100.00;74614.06;5278577;26;98418;-72
2024/04/15 07:32:26;;;;;;;;;23.50;21.75;;;;;-143.90;100.00;74638.88;5288101;26;97999;-71
2024/04/15 07:34:53;;;;;;;;;26.00;24.00;;;;;-143.90;100.00;74686.41;5275160;26;98289;-73
2024/04/15 07:37:21;;;;;;;;;18.00;17.00;;;;;-143.90;100.00;74674.00;5269768;26;99794;-73
2024/04/15 07:39:49;;;;;;;;;23.50;20.25;;;;;-143.90;100.00;74713.28;5272256;26;98196;-71
2024/04/15 07:42:16;;;;;;;;;22.00;21.50;;;;;-143.90;100.00;74754.63;5278115;26;98138;-72
2024/04/15 07:44:57;;;;;;;;;13.00;12.00;;;;;-143.90;100.00;74746.34;5276334;26;98292;-71
2024/04/15 07:47:24;;;;;;;;;13.25;11.50;;;;;-143.90;100.00;74736.03;5264000;26;99867;-71
2024/04/15 07:49:51;;;;;;;;;14.00;11.00;;;;;-143.90;100.00;74707.09;5272565;26;97858;-72
2024/04/15 07:52:18;;;;;;;;;12.00;11.25;;;;;-143.90;100.00;74696.75;5277222;26;98336;-72
2024/04/15 07:54:46;;;;;;;;;11.25;9.00;;;;;-143.90;100.00;74686.41;5284131;26;97855;-71
2024/04/15 07:57:13;;;;;;;;;8.75;8.50;;;;;-143.90;100.00;74657.47;5280561;26;99834;-72
2024/04/15 07:59:40;;;;;;;;;8.50;8.25;;;;;-143.90;100.00;74632.66;5265082;26;98585;-72
2024/04/15 08:02:08;;;;;;;;;11.25;9.50;;;;;-143.90;100.00;74618.19;5275356;26;98270;-72
2024/04/15 08:04:41;;;;;;;;;15.00;13.50;;;;;-143.90;100.00;74609.94;5280950;26;98730;-72
2024/04/15 08:07:08;;;;;;;;;18.25;16.50;;;;;-143.90;100.00;74593.38;5279693;26;99973;-72
2024/04/15 08:09:41;;;;;;;;;17.75;15.50;;;;;-143.90;100.00;74585.13;5268875;26;98311;-72
2024/04/15 08:12:08;;;;;;;;;12.50;12.00;;;;;-143.90;100.00;74576.84;5274398;26;98515;-71
2024/04/15 08:14:34;;;;;;;;;8.25;8.25;;;;;-143.90;100.00;74560.31;5288814;26;100798;-71
2024/04/15 08:17:01;;;;;;;;;8.75;8.25;;;;;-143.90;100.00;74547.91;5275879;26;99781;-72
2024/04/15 08:19:28;;;;;;;;;9.75;7.25;;;;;-143.90;100.00;74539.66;5276467;26;98725;-72
2024/04/15 08:21:57;;;;;;;;;11.00;10.50;;;;;-143.90;100.00;74531.38;5239563;26;99516;-72
2024/04/15 08:24:24;;;;;;;;;6.25;5.25;;;;;-143.90;100.00;74502.44;5277878;26;98248;-72
2024/04/15 08:26:51;;;;;;;;;4.00;4.00;;;;;-143.90;100.00;74510.72;5285621;26;99737;-72
2024/04/15 08:29:18;;;;;;;;;6.75;5.75;;;;;-143.90;100.00;74510.72;5274242;26;97816;-72
2024/04/15 08:31:45;;;;;;;;;5.50;4.50;;;;;-143.90;100.00;74531.38;5265581;26;98301;-72
2024/04/15 08:34:12;;;;;;;;;3.00;3.00;;;;;-143.90;100.00;74541.72;5246790;26;98316;-73
2024/04/15 08:36:39;;;;;;;;;2.00;2.00;;;;;-143.90;100.00;74539.66;5279545;26;101652;-72
2024/04/15 08:39:06;;;;;;;;;2.00;2.00;;;;;-143.90;100.00;74539.66;5282540;26;98550;-72
2024/04/15 08:42:05;;;;;;;;;7.00;3.75;;;;;-143.90;100.00;74535.50;5272659;26;98149;-73
2024/04/15 08:44:33;;;;;;;;;5.00;4.75;;;;;-143.90;100.00;74527.25;5283273;26;98478;-72
2024/04/15 08:47:09;;;;;;;;;5.25;4.00;;;;;-143.90;100.00;74543.78;5277785;26;99889;-72
2024/04/15 08:49:37;;;;;;;;;2.50;2.50;;;;;-143.90;100.00;74547.91;5267515;26;97845;-73
2024/04/15 08:52:06;;;;;;;;;1.00;1.00;;;;;-143.90;100.00;74568.59;5284541;26;97991;-72
2024/04/15 08:54:33;;;;;;;;;1.00;1.00;;;;;-143.90;100.00;74572.72;5282657;26;103664;-72
2024/04/15 08:57:02;;;;;;;;;2.00;2.00;;;;;-143.90;100.00;74568.59;5278716;26;104447;-73
2024/04/15 08:59:32;;;;;;;;;2.75;2.00;;;;;-143.90;100.00;74574.78;5282792;26;97945;-73
2024/04/15 09:01:59;;;;;;;;;2.00;2.00;;;;;-143.90;100.00;74585.13;5273626;26;101045;-73
2024/04/15 09:04:27;;;;;;;;;4.00;2.50;;;;;-143.90;100.00;74597.53;5282011;26;98235;-73
2024/04/15 09:06:54;;;;;;;;;1.00;1.00;;;;;-143.90;100.00;74614.06;5270506;26;99907;-73
2024/04/15 09:09:21;;;;;;;;;3.00;2.00;;;;;-143.90;100.00;74640.94;5281969;26;98068;-73
2024/04/15 09:11:52;;;;;;;;;2.75;2.75;;;;;-143.90;100.00;74667.81;5264443;26;98608;-73
2024/04/15 09:14:21;;;;;;;;;2.00;2.00;;;;;-143.90;100.00;74682.28;5282022;26;98269;-72
2024/04/15 09:16:48;;;;;;;;;1.75;1.00;;;;;-143.90;100.00;74694.69;5272473;26;99751;-72
2024/04/15 09:19:15;;;;;;;;;0.75;0.00;;;;;-143.90;100.00;74696.75;5275564;26;98285;-73
2024/04/15 09:21:42;;;;;;;;;1.50;0.00;;;;;-143.90;100.00;74700.88;5257432;26;97914;-73
2024/04/15 09:24:10;;;;;;;;;0.00;0.00;;;;;-143.90;100.00;74688.47;5273551;26;99233;-73
2024/04/15 09:26:37;;;;;;;;;0.75;0.75;;;;;-143.90;100.00;74680.22;5252704;26;99822;-73
2024/04/15 09:29:08;;;;;;;;;1.00;1.00;;;;;-143.90;100.00;74688.47;5277068;26;98347;-72
2024/04/15 09:31:36;;;;;;;;;0.00;0.00;;;;;-143.90;100.00;74680.22;5261508;26;98087;-72
2024/04/15 09:34:05;;;;;;;;;1.00;1.00;;;;;-143.90;100.00;74667.81;5280062;26;98978;-73
2024/04/15 09:36:33;;;;;;;;;1.00;1.00;;;;;-143.90;100.00;74676.06;5275734;26;100018;-73
2024/04/15 09:39:00;;;;;;;;;1.00;1.00;;;;;-143.90;100.00;74665.75;5272945;26;98303;-73
2024/04/15 09:41:27;;;;;;;;;1.75;1.25;;;;;-143.90;100.00;74659.53;5271483;26;98205;-73
2024/04/15 09:43:55;;;;;;;;;2.00;2.00;;;;;-143.90;100.00;74659.53;5270346;26;98466;-73
2024/04/15 09:46:27;;;;;;;;;4.75;2.00;;;;;-143.90;100.00;74651.28;5279144;26;99874;-73
2024/04/15 09:48:55;;;;;;;;;1.75;1.00;;;;;-143.90;100.00;74638.88;5271537;26;97816;-73
2024/04/15 09:51:23;;;;;;;;;0.50;0.50;;;;;-143.90;100.00;74638.88;5277789;25;97890;-72
2024/04/15 09:53:53;;;;;;;;;1.50;1.50;;;;;-143.90;100.00;74628.53;5277794;26;98486;-72
2024/04/15 09:56:26;;;;;;;;;1.00;1.00;;;;;-143.90;100.00;74622.34;5277257;26;99252;-73
2024/04/15 09:58:55;;;;;;;;;0.50;0.50;;;;;-143.90;100.00;74614.06;5278336;26;97880;-73
2024/04/15 10:01:31;;;;;;;;;0.50;0.50;;;;;-143.90;100.00;74603.72;5272035;26;98106;-73
2024/04/15 10:04:02;;;;;;;;;0.00;0.00;;;;;-143.90;100.00;74614.06;5273293;26;97926;-73
2024/04/15 10:06:47;;;;;;;;;0.00;0.00;;;;;-143.90;100.00;74603.72;5278958;26;104601;-73
2024/04/15 10:09:15;;;;;;;;;0.75;0.00;;;;;-143.90;100.00;74587.19;5282833;26;98101;-73
2024/04/15 10:11:42;;;;;;;;;1.25;1.25;;;;;-143.90;100.00;74552.03;5274491;26;98317;-73
2024/04/15 10:14:11;;;;;;;;;1.00;1.00;;;;;-143.90;100.00;74498.31;5280943;26;99220;-73
2024/04/15 10:16:38;;;;;;;;;1.00;0.00;;;;;-143.90;100.00;74450.75;5278027;26;99754;-74
2024/04/15 10:19:09;;;;;;;;;0.00;0.00;;;;;-143.90;100.00;74399.09;5276412;26;98158;-73
2024/04/15 10:21:36;;;;;;;;;2.00;1.00;;;;;-143.90;100.00;74370.16;5276538;26;97886;-72
2024/04/15 10:24:03;;;;;;;;;1.25;1.25;;;;;-143.90;100.00;74345.34;5285680;26;99844;-73
2024/04/15 10:26:30;;;;;;;;;5.00;3.00;;;;;-143.90;100.00;74337.06;5279959;26;104512;-73
2024/04/15 10:29:21;;;;;;;;;2.00;2.00;;;;;-143.90;100.00;74337.06;5278488;26;98313;-73
2024/04/15 10:31:53;;;;;;;;;2.25;2.00;;;;;-143.90;100.00;74324.69;5255917;26;104282;-74
2024/04/15 10:34:24;;;;;;;;;2.00;2.00;;;;;-143.90;100.00;74301.94;5285610;25;97781;-74
2024/04/15 10:36:53;;;;;;;;;4.00;3.00;;;;;-143.90;100.00;74326.75;5277643;26;100142;-74
2024/04/15 10:39:21;;;;;;;;;2.00;1.50;;;;;-143.90;100.00;74324.69;5281492;26;98109;-74
2024/04/15 10:41:51;;;;;;;;;2.00;2.00;;;;;-143.90;100.00;74320.53;5273792;26;98620;-74
2024/04/15 10:44:19;;;;;;;;;2.00;1.50;;;;;-143.90;100.00;74326.75;5278017;25;97971;-74
2024/04/15 10:46:47;;;;;;;;;2.00;2.00;;;;;-143.90;100.00;74332.94;5313396;26;99902;-74
2024/04/15 10:49:15;;;;;;;;;2.50;1.50;;;;;-143.90;100.00;74349.47;5280029;26;98312;-73
2024/04/15 10:51:43;;;;;;;;;1.00;0.50;;;;;-143.90;100.00;74353.63;5274305;26;97806;-74
2024/04/15 10:54:10;;;;;;;;;2.00;2.00;;;;;-143.90;100.00;74349.47;5285472;26;98092;-74
2024/04/15 10:56:37;;;;;;;;;1.00;1.00;;;;;-143.90;100.00;74349.47;5271215;26;99847;-73
2024/04/15 10:59:04;;;;;;;;;1.00;1.00;;;;;-143.90;100.00;74353.63;5275026;26;101551;-74
2024/04/15 11:01:31;;;;;;;;;1.00;1.00;;;;;-143.90;100.00;74332.94;5275976;25;98308;-74
2024/04/15 11:03:58;;;;;;;;;1.00;1.00;;;;;-143.90;100.00;74328.81;5273711;26;98374;-74
2024/04/15 11:06:27;;;;;;;;;1.00;1.00;;;;;-143.90;100.00;74312.28;5282135;26;99945;-73